La Ronge Airport
CYVC : now visible

Airfield :











YOU CAN JOIN US ON...

 
LOGIN :

Register | Disclaimer

   EN    FR    IT 

 









Legend :    VFR   Marginal VFR   IFR   Intensive IFR   Very Intensive IFR
Visi :
Ceiling :
>= 8 km
>= 3000ft
5 to 8 km
1000 to 3000 ft
1500m to 5 km
500 to 1000 ft
800 to 1500m
200 to 500 ft
< 800m
< 200 ft
Symbols :   Thunderstorms  Fog  Heavy snow  Heavy precipitations  Wind > 20 kt






- Airport Elevation : 1242 ft
- IATA code : YVC


CYVC - La Ronge

CURRENT METAR :
  • 161300Z 28011KT 15SM -SN OVC010 M17/M20 A2981 RMK SC8 SLP138

EXPIRED METARs :
  • 161200Z 29011G17KT 15SM -SN OVC010 M18/M20 A2979 RMK SC8 SLP131
  • 161100Z 30003KT 12SM -SN OVC013 M20/M22 A2976 RMK SC8 SLP123

TAF TAF CYVC
Valid from the 16 at 13:00 until the 17 at 01:00 UTC


161238Z 1613/1701 29012KT P6SM -SN SCT008 BKN012 OVC040
TEMPO 1613/1615 4SM -SN BKN008 OVC012
FM161500 29012KT P6SM BKN025
TEMPO 1615/1620 P6SM -SN OVC020
FM162000 30012KT P6SM SCT025
TEMPO 1620/1623 BKN020
FM162300 31008KT P6SM FEW025 RMK NXT FCST BY 161900Z



MET'MAP, your aeronautical weather chart ! - Copyright ORBIFLY December 2007 - Disclaimer

ORBIFLY MET'MAP TEAM :

Programming & Development : Alexandra Zaïnal
Concept & original design : Baudouin d'Aumeries
Assistance for programming : Marc-Olivier Méhu
Technical & hardware support : Manuel Goepfert

Contact : metmap@orbifly.com




SOURCES & CREDITS :

   NOAA       Earth
Advisory